Time;durP1;ratioP1;P1;durP2;ratioP2;P2;SDS_P1;SDS_P2;PMS_P1;PMS_P2;Temp;Humidity;BMP_temperature;BMP_pressure;BME280_temperature;BME280_humidity;BME280_pressure;Samples;Min_cycle;Max_cycle;Signal;HPM_P1;HPM_P2
2023/08/16 00:01:46;;;;;;;;;5.33;5.33;;;;;-143.90;75.46;74254.41;4881845;28;102453;-75
2023/08/16 00:04:13;;;;;;;;;6.67;6.00;;;;;-143.90;75.28;74254.41;4873761;28;102485;-75
2023/08/16 00:06:42;;;;;;;;;6.00;6.00;;;;;-143.90;75.31;74248.19;4880580;28;103544;-75
2023/08/16 00:09:10;;;;;;;;;5.67;5.00;;;;;-143.90;75.32;74250.25;4867952;28;108590;-75
2023/08/16 00:11:40;;;;;;;;;6.00;5.00;;;;;-143.90;75.37;74242.00;4839432;28;102203;-75
2023/08/16 00:14:07;;;;;;;;;4.67;4.67;;;;;-143.90;74.63;74242.00;4832191;28;102600;-74
2023/08/16 00:16:37;;;;;;;;;6.67;5.67;;;;;-143.90;74.80;74233.72;4862323;28;104799;-75
2023/08/16 00:19:06;;;;;;;;;3.00;3.00;;;;;-143.90;74.86;74221.31;4865204;28;105236;-75
2023/08/16 00:21:33;;;;;;;;;6.00;6.00;;;;;-143.90;75.04;74229.59;4875494;28;102224;-75
2023/08/16 00:24:00;;;;;;;;;5.67;5.67;;;;;-143.90;74.36;74244.06;4878051;28;102533;-75
2023/08/16 00:26:27;;;;;;;;;15.67;15.67;;;;;-143.90;73.61;74246.13;4884772;28;103137;-75
2023/08/16 00:28:55;;;;;;;;;13.33;13.00;;;;;-143.90;74.31;74239.94;4870173;28;104318;-75
2023/08/16 00:31:22;;;;;;;;;15.00;13.67;;;;;-143.90;74.48;74258.53;4865218;28;103454;-75
2023/08/16 00:33:49;;;;;;;;;10.00;9.33;;;;;-143.90;75.05;74268.88;4825039;28;104500;-75
2023/08/16 00:36:18;;;;;;;;;11.00;10.00;;;;;-143.90;75.57;74266.81;4877012;28;102984;-75
2023/08/16 00:38:50;;;;;;;;;10.33;10.33;;;;;-143.90;75.93;74279.22;4881413;28;104374;-75
2023/08/16 00:41:20;;;;;;;;;12.00;11.00;;;;;-143.90;75.85;74283.34;4841287;28;102668;-75
2023/08/16 00:43:47;;;;;;;;;8.67;8.67;;;;;-143.90;76.54;74293.66;4853364;28;103026;-75
2023/08/16 00:46:15;;;;;;;;;9.33;9.00;;;;;-143.90;76.89;74299.88;4890649;28;103845;-75
2023/08/16 00:48:44;;;;;;;;;7.33;7.33;;;;;-143.90;76.11;74295.75;4876869;28;105487;-75
2023/08/16 00:51:12;;;;;;;;;6.67;6.33;;;;;-143.90;76.42;74295.75;4860102;28;102256;-74
2023/08/16 00:53:42;;;;;;;;;8.00;8.00;;;;;-143.90;76.58;74291.59;4858441;28;110316;-75
2023/08/16 00:56:12;;;;;;;;;8.00;8.00;;;;;-143.90;76.13;74304.00;4854775;28;103327;-75
2023/08/16 00:58:42;;;;;;;;;7.33;7.00;;;;;-143.90;76.06;74295.75;4880932;28;108555;-75
2023/08/16 01:01:10;;;;;;;;;10.00;8.33;;;;;-143.90;75.85;74310.22;4854864;28;102039;-74
2023/08/16 01:03:42;;;;;;;;;6.67;6.00;;;;;-143.90;76.38;74299.88;4861642;28;102173;-75
2023/08/16 01:06:12;;;;;;;;;7.67;7.00;;;;;-143.90;76.82;74312.28;4875341;28;103275;-76
2023/08/16 01:08:40;;;;;;;;;6.00;5.33;;;;;-143.90;77.17;74314.34;4848822;28;103471;-76
2023/08/16 01:11:18;;;;;;;;;6.00;5.33;;;;;-143.90;78.43;74322.59;4871772;28;102359;-76
2023/08/16 01:13:56;;;;;;;;;10.00;9.00;;;;;-143.90;79.28;74341.22;4880129;28;102347;-76
2023/08/16 01:16:27;;;;;;;;;15.00;12.67;;;;;-143.90;79.63;74355.69;4866669;28;102286;-76
2023/08/16 01:18:56;;;;;;;;;13.33;13.33;;;;;-143.90;79.55;74363.94;4866592;28;103387;-76
2023/08/16 01:21:25;;;;;;;;;14.00;14.00;;;;;-143.90;79.63;74363.94;4830040;28;102316;-75
2023/08/16 01:23:53;;;;;;;;;11.00;10.33;;;;;-143.90;79.71;74355.69;4869653;28;102523;-76
2023/08/16 01:26:41;;;;;;;;;13.00;12.67;;;;;-143.90;79.16;74370.16;4860209;28;103070;-76
2023/08/16 01:29:14;;;;;;;;;11.33;11.33;;;;;-143.90;79.17;74366.00;4836139;28;104736;-75
2023/08/16 01:31:41;;;;;;;;;11.33;10.33;;;;;-143.90;78.82;74374.28;4845058;28;103245;-75
2023/08/16 01:34:12;;;;;;;;;13.33;11.33;;;;;-143.90;79.89;74401.16;4824957;28;102504;-75
2023/08/16 01:36:40;;;;;;;;;15.33;14.67;;;;;-143.90;81.26;74405.28;4837273;28;102433;-75
2023/08/16 01:39:11;;;;;;;;;18.25;18.25;;;;;-143.90;81.83;74421.81;4879385;28;103589;-75
2023/08/16 01:41:38;;;;;;;;;14.00;14.00;;;;;-143.90;81.60;74415.63;4879047;28;102018;-75
2023/08/16 01:44:07;;;;;;;;;15.00;14.33;;;;;-143.90;80.67;74415.63;4861800;28;102043;-74
2023/08/16 01:46:36;;;;;;;;;12.00;12.00;;;;;-143.90;82.26;74438.38;4867684;28;105135;-75
2023/08/16 01:49:04;;;;;;;;;19.25;19.00;;;;;-143.90;82.48;74434.22;4871414;28;106138;-75
2023/08/16 01:51:31;;;;;;;;;11.33;11.33;;;;;-143.90;82.94;74440.44;4846420;28;102265;-75
2023/08/16 01:54:01;;;;;;;;;20.00;18.25;;;;;-143.90;82.80;74444.56;4874204;28;101963;-75
2023/08/16 01:56:31;;;;;;;;;13.00;13.00;;;;;-143.90;82.79;74446.63;4867125;28;102632;-75
2023/08/16 01:58:58;;;;;;;;;15.00;12.67;;;;;-143.90;82.92;74452.84;4835234;28;104300;-74
2023/08/16 02:01:25;;;;;;;;;10.67;10.00;;;;;-143.90;82.98;74459.03;4877601;28;104322;-75
2023/08/16 02:03:53;;;;;;;;;14.00;11.33;;;;;-143.90;82.88;74461.09;4876713;28;101991;-75
2023/08/16 02:06:21;;;;;;;;;10.67;10.67;;;;;-143.90;82.60;74463.16;4874038;28;102313;-75
2023/08/16 02:08:50;;;;;;;;;7.67;7.67;;;;;-143.90;82.52;74444.56;4843470;28;104048;-74
2023/08/16 02:11:18;;;;;;;;;12.00;9.00;;;;;-143.90;81.96;74446.63;4805600;28;102278;-75
2023/08/16 02:13:50;;;;;;;;;7.00;6.00;;;;;-143.90;81.51;74446.63;4861036;28;102388;-73
2023/08/16 02:16:17;;;;;;;;;10.00;9.00;;;;;-143.90;82.31;74448.69;4851614;28;103302;-75
2023/08/16 02:18:45;;;;;;;;;9.67;9.67;;;;;-143.90;82.84;74452.84;4834287;28;103542;-75
2023/08/16 02:21:14;;;;;;;;;10.00;10.00;;;;;-143.90;82.95;74465.22;4883659;28;103231;-75
2023/08/16 02:23:41;;;;;;;;;11.00;10.00;;;;;-143.90;82.24;74459.03;4880302;28;102118;-75
2023/08/16 02:26:08;;;;;;;;;8.00;8.00;;;;;-143.90;81.46;74473.50;4880295;28;102434;-75
2023/08/16 02:28:35;;;;;;;;;11.67;10.00;;;;;-143.90;80.62;74465.22;4864314;28;103947;-75
2023/08/16 02:31:06;;;;;;;;;10.00;10.00;;;;;-143.90;80.25;74471.44;4837908;28;102195;-75
2023/08/16 02:33:33;;;;;;;;;12.67;11.67;;;;;-143.90;81.97;74483.84;4861869;28;102459;-75
2023/08/16 02:36:01;;;;;;;;;13.25;13.00;;;;;-143.90;83.81;74518.97;4887520;28;102615;-75
2023/08/16 02:38:30;;;;;;;;;18.00;17.00;;;;;-143.90;84.63;74527.25;4876332;28;103060;-74
2023/08/16 02:40:57;;;;;;;;;13.67;13.00;;;;;-143.90;85.39;74514.84;4893225;28;103960;-75
2023/08/16 02:43:26;;;;;;;;;11.67;10.67;;;;;-143.90;85.21;74506.56;4869428;28;102080;-75
2023/08/16 02:45:54;;;;;;;;;12.00;12.00;;;;;-143.90;84.63;74506.56;4827121;28;102100;-75
2023/08/16 02:48:23;;;;;;;;;11.00;11.00;;;;;-143.90;84.22;74514.84;4845234;28;103323;-77
2023/08/16 02:50:51;;;;;;;;;14.67;14.00;;;;;-143.90;84.21;74518.97;4873763;28;102090;-75
2023/08/16 02:53:25;;;;;;;;;29.75;29.25;;;;;-143.90;83.24;74502.44;4864847;28;102254;-75
2023/08/16 02:55:52;;;;;;;;;30.00;27.50;;;;;-143.90;82.55;74510.72;4523826;28;10001032;-74
2023/08/16 02:58:23;;;;;;;;;29.00;26.50;;;;;-143.90;83.09;74496.25;4879785;28;102565;-75
2023/08/16 03:00:52;;;;;;;;;27.50;25.50;;;;;-143.90;83.34;74490.03;4880676;28;105499;-75
2023/08/16 03:03:19;;;;;;;;;21.75;20.50;;;;;-143.90;84.37;74504.50;4862760;28;102319;-75
2023/08/16 03:05:49;;;;;;;;;19.75;17.75;;;;;-143.90;84.23;74510.72;4891768;28;102371;-77
2023/08/16 03:08:16;;;;;;;;;14.00;13.75;;;;;-143.90;84.25;74508.63;4897614;28;103737;-75
2023/08/16 03:10:43;;;;;;;;;22.00;20.25;;;;;-143.90;84.62;74523.09;4886781;28;103229;-77
2023/08/16 03:13:10;;;;;;;;;18.00;17.00;;;;;-143.90;84.44;74508.63;4874475;28;102476;-75
2023/08/16 03:15:36;;;;;;;;;14.50;14.50;;;;;-143.90;84.35;74504.50;4895140;28;102127;-75
2023/08/16 03:18:06;;;;;;;;;13.00;11.00;;;;;-143.90;83.64;74506.56;4865615;28;102426;-75
2023/08/16 03:20:33;;;;;;;;;13.33;12.00;;;;;-143.90;83.25;74504.50;4879500;28;105506;-76
2023/08/16 03:23:03;;;;;;;;;11.00;11.00;;;;;-143.90;83.31;74502.44;4908202;28;102152;-76
2023/08/16 03:25:32;;;;;;;;;9.00;8.33;;;;;-143.90;83.71;74504.50;4876560;28;104308;-76
2023/08/16 03:27:59;;;;;;;;;13.25;13.25;;;;;-143.90;84.43;74510.72;4899411;28;102563;-76
2023/08/16 03:30:26;;;;;;;;;12.67;11.33;;;;;-143.90;84.51;74523.09;4857586;28;105090;-74
2023/08/16 03:32:53;;;;;;;;;13.00;11.33;;;;;-143.90;84.11;74518.97;4860516;28;102208;-75
2023/08/16 03:35:20;;;;;;;;;10.33;9.67;;;;;-143.90;83.94;74516.91;4860566;28;102315;-75
2023/08/16 03:37:47;;;;;;;;;8.00;8.00;;;;;-143.90;83.76;74506.56;4913642;28;103127;-75
2023/08/16 03:40:16;;;;;;;;;9.33;9.00;;;;;-143.90;82.65;74512.78;4868478;28;103795;-75
2023/08/16 03:42:46;;;;;;;;;11.33;10.00;;;;;-143.90;81.61;74506.56;4895037;28;103731;-75
2023/08/16 03:45:15;;;;;;;;;10.67;10.67;;;;;-143.90;81.29;74527.25;4858178;28;103498;-75
2023/08/16 03:47:43;;;;;;;;;28.25;26.00;;;;;-143.90;81.22;74514.84;4882573;28;103340;-74
2023/08/16 03:50:13;;;;;;;;;18.00;18.00;;;;;-143.90;82.40;74514.84;4871740;28;110147;-75
2023/08/16 03:52:40;;;;;;;;;16.75;16.00;;;;;-143.90;82.23;74518.97;4907077;28;102243;-75
2023/08/16 03:55:10;;;;;;;;;13.33;12.33;;;;;-143.90;82.47;74506.56;4871898;28;102143;-75
2023/08/16 03:57:37;;;;;;;;;13.33;11.67;;;;;-143.90;82.67;74514.84;4854321;28;103921;-75
2023/08/16 04:00:11;;;;;;;;;9.33;9.33;;;;;-143.90;82.85;74496.25;4891875;28;106216;-75
2023/08/16 04:02:48;;;;;;;;;10.33;10.00;;;;;-143.90;82.83;74496.25;4851185;28;102639;-75
2023/08/16 04:05:15;;;;;;;;;9.00;9.00;;;;;-143.90;82.40;74492.09;4864087;28;102760;-75
2023/08/16 04:07:42;;;;;;;;;9.33;8.33;;;;;-143.90;82.58;74492.09;4866771;28;102027;-75
2023/08/16 04:10:15;;;;;;;;;10.00;9.00;;;;;-143.90;83.08;74483.84;4879399;28;107910;-75
2023/08/16 04:12:45;;;;;;;;;8.00;8.00;;;;;-143.90;82.92;74485.91;4890909;28;102363;-75
2023/08/16 04:15:17;;;;;;;;;8.33;8.33;;;;;-143.90;82.62;74483.84;4878137;28;103748;-75
2023/08/16 04:17:44;;;;;;;;;6.00;6.00;;;;;-143.90;82.67;74477.63;4847441;28;102311;-75
2023/08/16 04:20:11;;;;;;;;;7.33;6.67;;;;;-143.90;82.87;74479.69;4849271;28;107936;-75
2023/08/16 04:22:42;;;;;;;;;10.00;10.00;;;;;-143.90;82.11;74477.63;4757204;28;102541;-75
2023/08/16 04:25:09;;;;;;;;;9.33;8.00;;;;;-143.90;82.68;74473.50;4870544;28;102191;-75
2023/08/16 04:27:36;;;;;;;;;7.33;7.33;;;;;-143.90;82.62;74465.22;4867447;28;102491;-75
2023/08/16 04:30:04;;;;;;;;;6.33;6.33;;;;;-143.90;82.97;74456.97;4903169;28;103924;-76
2023/08/16 04:32:31;;;;;;;;;10.67;10.33;;;;;-143.90;83.05;74459.03;4879111;28;102647;-76
2023/08/16 04:35:04;;;;;;;;;13.00;11.33;;;;;-143.90;82.82;74465.22;4891653;28;104274;-76
2023/08/16 04:37:32;;;;;;;;;9.00;9.00;;;;;-143.90;82.61;74444.56;4906404;28;102223;-77
2023/08/16 04:39:58;;;;;;;;;10.33;10.00;;;;;-143.90;83.03;74430.09;4902351;28;105840;-77
2023/08/16 04:42:34;;;;;;;;;12.00;11.00;;;;;-143.90;82.66;74419.75;4867153;28;102748;-76
2023/08/16 04:45:08;;;;;;;;;7.00;7.00;;;;;-143.90;81.91;74394.94;4884868;28;102215;-77
2023/08/16 04:47:42;;;;;;;;;8.67;8.33;;;;;-143.90;81.77;74397.03;4837624;28;102907;-75
2023/08/16 04:50:14;;;;;;;;;7.67;7.67;;;;;-143.90;81.36;74374.28;4788114;28;107904;-75
2023/08/16 04:52:44;;;;;;;;;11.00;10.00;;;;;-143.90;80.49;74357.75;4762976;28;102104;-75
2023/08/16 04:55:15;;;;;;;;;10.00;8.00;;;;;-143.90;80.09;74343.28;4796970;28;102286;-75
2023/08/16 04:57:49;;;;;;;;;11.33;8.00;;;;;-143.90;79.48;74335.00;4768328;28;102124;-75
2023/08/16 05:00:26;;;;;;;;;9.33;8.67;;;;;-143.90;78.95;74312.28;4834538;28;109292;-75
2023/08/16 05:02:56;;;;;;;;;10.00;10.00;;;;;-143.90;78.79;74304.00;4778528;28;102097;-75
2023/08/16 05:05:29;;;;;;;;;14.33;13.33;;;;;-143.90;79.36;74277.13;4722038;28;104604;-74
2023/08/16 05:08:06;;;;;;;;;12.33;11.67;;;;;-143.90;78.91;74256.47;4722493;28;102344;-75
2023/08/16 05:10:37;;;;;;;;;13.67;13.67;;;;;-143.90;79.71;74258.53;4725850;28;103810;-74
2023/08/16 05:13:07;;;;;;;;;11.33;9.67;;;;;-143.90;79.39;74233.72;4681922;28;102059;-75
2023/08/16 05:16:09;;;;;;;;;12.00;12.00;;;;;-143.90;78.77;74217.19;4709960;28;103519;-75
2023/08/16 05:18:41;;;;;;;;;11.00;10.50;;;;;-143.90;78.55;74204.78;4737497;28;103970;-74
2023/08/16 05:21:21;;;;;;;;;13.00;12.00;;;;;-143.90;78.56;74180.00;4712046;28;108754;-75
2023/08/16 05:24:26;;;;;;;;;10.33;9.67;;;;;-143.90;77.16;74171.72;4771842;28;102497;-74
2023/08/16 05:26:58;;;;;;;;;9.00;9.00;;;;;-143.90;76.32;74167.59;4711782;28;102288;-75
2023/08/16 05:29:30;;;;;;;;;10.00;9.00;;;;;-143.90;75.82;74149.00;4707055;28;103703;-75
2023/08/16 05:32:04;;;;;;;;;10.00;10.00;;;;;-143.90;76.40;74138.66;4774649;28;104096;-75
2023/08/16 05:34:44;;;;;;;;;4.00;4.00;;;;;-143.90;74.44;74122.13;4694511;28;103826;-74
2023/08/16 05:37:32;;;;;;;;;9.33;8.67;;;;;-143.90;72.84;74118.00;4718298;28;102573;-74
2023/08/16 05:40:02;;;;;;;;;6.67;6.67;;;;;-143.90;72.42;74113.84;4788499;28;102290;-74
2023/08/16 05:42:38;;;;;;;;;12.67;12.00;;;;;-143.90;73.32;74097.31;4695921;28;104140;-75
2023/08/16 05:45:14;;;;;;;;;19.00;18.33;;;;;-143.90;73.73;74074.59;4693276;28;102311;-75
2023/08/16 05:47:51;;;;;;;;;20.00;20.00;;;;;-143.90;73.98;74058.06;4724945;28;102428;-75
2023/08/16 05:50:25;;;;;;;;;21.67;19.67;;;;;-143.90;71.32;74016.72;4719593;28;102316;-75
2023/08/16 05:53:09;;;;;;;;;19.67;18.00;;;;;-143.90;70.10;73977.44;4704700;28;103615;-75
2023/08/16 05:55:55;;;;;;;;;16.33;15.67;;;;;-143.90;68.67;73938.19;4705802;28;102039;-74
2023/08/16 05:58:45;;;;;;;;;18.33;18.33;;;;;-143.90;68.23;73886.50;4688816;28;102182;-75
2023/08/16 06:01:20;;;;;;;;;23.33;23.33;;;;;-143.90;68.21;73857.56;4703443;28;102208;-75
2023/08/16 06:04:17;;;;;;;;;34.00;31.25;;;;;-143.90;69.98;73812.09;4620322;28;107655;-75
2023/08/16 06:07:08;;;;;;;;;33.00;30.33;;;;;-143.90;66.19;73779.03;4692310;28;102280;-74
2023/08/16 06:09:42;;;;;;;;;27.00;25.67;;;;;-143.90;64.08;73754.25;4702031;28;102433;-75
2023/08/16 06:12:17;;;;;;;;;25.00;21.33;;;;;-143.90;63.34;73727.38;4660132;28;103024;-75
2023/08/16 06:14:58;;;;;;;;;21.00;19.33;;;;;-143.90;61.37;73694.31;4745189;28;109428;-75
2023/08/16 06:17:33;;;;;;;;;22.33;22.33;;;;;-143.90;60.86;73679.84;4703597;28;104711;-75
2023/08/16 06:20:05;;;;;;;;;19.67;18.33;;;;;-143.90;61.08;73696.38;4696306;28;103015;-74
2023/08/16 06:22:50;;;;;;;;;21.33;21.33;;;;;-143.90;64.81;73717.03;4731024;28;102118;-74
2023/08/16 06:25:30;;;;;;;;;26.67;25.33;;;;;-143.90;65.71;73714.97;4707434;28;107522;-75
2023/08/16 06:28:12;;;;;;;;;34.00;32.00;;;;;-143.90;65.22;73681.91;4742653;28;103245;-75
2023/08/16 06:30:42;;;;;;;;;26.33;25.00;;;;;-143.90;63.76;73665.38;4737230;28;102372;-74
2023/08/16 06:33:21;;;;;;;;;23.00;22.00;;;;;-143.90;61.59;73644.69;4709716;28;102589;-74
2023/08/16 06:35:59;;;;;;;;;20.33;19.33;;;;;-143.90;59.57;73626.09;4675022;28;107887;-75
2023/08/16 06:38:37;;;;;;;;;16.00;15.00;;;;;-143.90;58.38;73601.31;4756411;28;103865;-75
2023/08/16 06:41:06;;;;;;;;;20.00;17.33;;;;;-143.90;57.66;73578.56;4724317;28;102982;-74
2023/08/16 06:43:37;;;;;;;;;17.00;16.00;;;;;-143.90;57.11;73568.25;4723857;28;103132;-75
2023/08/16 06:46:04;;;;;;;;;16.00;13.00;;;;;-143.90;56.43;73559.97;4763731;28;103471;-75
2023/08/16 06:48:43;;;;;;;;;14.00;14.00;;;;;-143.90;56.40;73535.19;4799437;28;102312;-74
2023/08/16 06:51:12;;;;;;;;;14.67;14.00;;;;;-143.90;55.09;73512.44;4783953;28;102194;-74
2023/08/16 06:53:43;;;;;;;;;12.33;12.00;;;;;-143.90;54.72;73493.84;4781805;28;102401;-74
2023/08/16 06:56:16;;;;;;;;;20.67;20.67;;;;;-143.90;55.31;73481.44;4776696;28;109699;-74
2023/08/16 06:58:43;;;;;;;;;16.33;16.33;;;;;-143.90;54.67;73500.03;4773369;28;102603;-74
2023/08/16 07:01:15;;;;;;;;;25.00;22.67;;;;;-143.90;56.90;73477.31;4820927;28;102326;-74
2023/08/16 07:03:43;;;;;;;;;17.67;17.67;;;;;-143.90;55.70;73456.66;4792629;28;102892;-74
2023/08/16 07:06:10;;;;;;;;;16.67;16.33;;;;;-143.90;54.69;73435.97;4755070;28;103796;-74
2023/08/16 07:08:42;;;;;;;;;19.00;19.00;;;;;-143.90;53.94;73411.19;4815753;28;102782;-75
2023/08/16 07:11:11;;;;;;;;;14.67;13.67;;;;;-143.90;52.33;73394.66;4786134;28;102895;-74
2023/08/16 07:13:42;;;;;;;;;15.00;13.67;;;;;-143.90;51.18;73386.38;4818682;28;102097;-74
2023/08/16 07:16:16;;;;;;;;;11.33;11.00;;;;;-143.90;50.89;73382.25;4863397;28;107905;-74
2023/08/16 07:18:43;;;;;;;;;10.67;9.67;;;;;-143.90;51.49;73369.84;4883600;28;102278;-74
2023/08/16 07:21:21;;;;;;;;;8.67;8.67;;;;;-143.90;51.05;73357.47;4820755;28;104232;-74
2023/08/16 07:23:52;;;;;;;;;11.67;11.33;;;;;-143.90;52.26;73349.19;4860658;28;102536;-74
2023/08/16 07:26:19;;;;;;;;;11.00;11.00;;;;;-143.90;50.70;73336.78;4849528;28;104391;-75
2023/08/16 07:28:46;;;;;;;;;7.00;7.00;;;;;-143.90;50.99;73332.66;4868121;28;103055;-75
2023/08/16 07:31:16;;;;;;;;;8.00;7.00;;;;;-143.90;50.66;73322.31;4893805;28;102359;-74
2023/08/16 07:33:43;;;;;;;;;7.00;7.00;;;;;-143.90;51.50;73334.72;4875380;28;102286;-75
2023/08/16 07:36:13;;;;;;;;;8.00;8.00;;;;;-143.90;51.93;73343.00;4880115;28;103370;-74
2023/08/16 07:38:40;;;;;;;;;7.33;7.00;;;;;-143.90;50.37;73324.41;4796398;28;102426;-74
2023/08/16 07:41:08;;;;;;;;;8.00;7.67;;;;;-143.90;48.35;73330.59;4810251;28;102146;-75
2023/08/16 07:43:36;;;;;;;;;8.00;8.00;;;;;-143.90;49.01;73312.00;4852384;28;105172;-75
2023/08/16 07:46:05;;;;;;;;;7.67;7.33;;;;;-143.90;49.62;73307.84;4863536;28;103386;-74
2023/08/16 07:48:35;;;;;;;;;5.50;4.50;;;;;-143.90;48.10;73307.84;4861839;28;102324;-74
2023/08/16 07:51:01;;;;;;;;;4.33;4.33;;;;;-143.90;48.18;73293.41;4874929;28;103480;-74
2023/08/16 07:53:28;;;;;;;;;8.00;8.00;;;;;-143.90;46.06;73309.94;4876860;28;102167;-74
2023/08/16 07:55:58;;;;;;;;;7.00;7.00;;;;;-143.90;47.44;73297.53;4861114;28;103503;-74
2023/08/16 07:58:28;;;;;;;;;6.67;6.67;;;;;-143.90;49.15;73278.94;4894341;28;102345;-74
2023/08/16 08:00:55;;;;;;;;;6.67;6.33;;;;;-143.90;52.26;73252.06;4881278;28;103097;-74
2023/08/16 08:03:22;;;;;;;;;8.00;7.00;;;;;-143.90;49.77;73250.00;4865437;28;102262;-74
2023/08/16 08:05:49;;;;;;;;;7.33;6.00;;;;;-143.90;48.97;73241.75;4882722;28;102946;-74
2023/08/16 08:08:18;;;;;;;;;7.75;7.00;;;;;-143.90;47.29;73227.28;4887084;28;104047;-74
2023/08/16 08:10:48;;;;;;;;;8.33;8.33;;;;;-143.90;46.23;73216.94;4895765;28;102363;-75
2023/08/16 08:13:15;;;;;;;;;6.00;5.75;;;;;-143.90;45.94;73221.06;4872865;28;102077;-74
2023/08/16 08:15:42;;;;;;;;;8.00;7.00;;;;;-143.90;45.68;73225.19;4898382;28;111316;-74
2023/08/16 08:18:09;;;;;;;;;6.00;5.00;;;;;-143.90;47.31;73210.75;4897336;28;102044;-73
2023/08/16 08:20:40;;;;;;;;;7.00;6.50;;;;;-143.90;46.31;73212.81;4901759;28;102044;-74
2023/08/16 08:23:07;;;;;;;;;8.33;7.00;;;;;-143.90;45.67;73200.41;4908882;28;104137;-74
2023/08/16 08:25:34;;;;;;;;;7.75;6.00;;;;;-143.90;44.19;73192.16;4894464;28;103133;-74
2023/08/16 08:28:01;;;;;;;;;7.00;6.00;;;;;-143.90;45.15;73206.59;4903833;28;102391;-74
2023/08/16 08:30:28;;;;;;;;;12.67;12.33;;;;;-143.90;45.22;73241.75;4908066;28;102873;-73
2023/08/16 08:32:58;;;;;;;;;11.00;9.67;;;;;-143.90;45.80;73272.72;4896423;28;102428;-74
2023/08/16 08:35:25;;;;;;;;;12.00;11.67;;;;;-143.90;46.45;73250.00;4915931;28;103107;-74
2023/08/16 08:37:54;;;;;;;;;8.67;8.67;;;;;-143.90;46.43;73210.75;4881454;28;102518;-74
2023/08/16 08:40:21;;;;;;;;;6.50;6.25;;;;;-143.90;46.75;73208.69;4909475;28;104404;-74
2023/08/16 08:42:51;;;;;;;;;6.00;6.00;;;;;-143.90;45.33;73202.47;4901824;28;102498;-74
2023/08/16 08:45:18;;;;;;;;;7.67;6.67;;;;;-143.90;46.85;73206.59;4914964;28;104370;-74
2023/08/16 08:47:47;;;;;;;;;9.67;9.33;;;;;-143.90;44.18;73235.53;4904460;28;102870;-73
2023/08/16 08:50:14;;;;;;;;;13.00;12.00;;;;;-143.90;48.06;73208.69;4906937;28;102268;-74
2023/08/16 08:52:42;;;;;;;;;11.00;10.00;;;;;-143.90;45.80;73200.41;4874589;28;102129;-74
2023/08/16 08:55:12;;;;;;;;;10.67;10.33;;;;;-143.90;44.89;73190.06;4919328;28;107994;-74
2023/08/16 08:57:39;;;;;;;;;8.00;8.00;;;;;-143.90;45.15;73161.16;4909111;28;101989;-74
2023/08/16 09:00:08;;;;;;;;;7.00;6.75;;;;;-143.90;45.42;73146.69;4892643;28;102033;-74
2023/08/16 09:02:39;;;;;;;;;4.67;4.67;;;;;-143.90;44.84;73140.47;4835905;28;102597;-74
2023/08/16 09:05:09;;;;;;;;;5.50;5.50;;;;;-143.90;44.14;73128.09;4862821;28;103375;-73
2023/08/16 09:07:39;;;;;;;;;12.00;10.67;;;;;-143.90;42.86;73128.09;4888633;28;104235;-74
2023/08/16 09:10:08;;;;;;;;;9.33;9.00;;;;;-143.90;44.27;73126.03;4909851;28;102141;-74
2023/08/16 09:12:38;;;;;;;;;8.00;7.33;;;;;-143.90;43.50;73121.88;4908248;28;102506;-74
2023/08/16 09:15:07;;;;;;;;;9.75;9.00;;;;;-143.90;45.10;73121.88;4911497;28;103269;-73
2023/08/16 09:17:35;;;;;;;;;7.33;7.33;;;;;-143.90;44.32;73113.63;4870069;28;102248;-74
2023/08/16 09:20:08;;;;;;;;;6.67;6.67;;;;;-143.90;44.32;73101.22;4881996;28;102446;-74
2023/08/16 09:22:35;;;;;;;;;9.00;8.00;;;;;-143.90;42.20;73113.63;4870962;28;102112;-74
2023/08/16 09:25:03;;;;;;;;;9.33;9.00;;;;;-143.90;41.21;73107.41;4912653;28;103137;-73
2023/08/16 09:27:31;;;;;;;;;8.00;7.25;;;;;-143.90;43.21;73092.97;4911350;28;102115;-74
2023/08/16 09:29:58;;;;;;;;;8.00;8.00;;;;;-143.90;43.82;73080.56;4909267;28;103289;-73
2023/08/16 09:32:30;;;;;;;;;10.67;9.00;;;;;-143.90;42.12;73080.56;4925883;28;102038;-74
2023/08/16 09:34:57;;;;;;;;;7.50;7.00;;;;;-143.90;43.37;73084.69;4910994;28;103244;-74
2023/08/16 09:37:31;;;;;;;;;7.33;7.33;;;;;-143.90;42.65;73084.69;4906605;28;105098;-74
2023/08/16 09:39:59;;;;;;;;;7.00;6.25;;;;;-143.90;43.87;73084.69;4910442;28;102570;-74
2023/08/16 09:42:33;;;;;;;;;6.00;6.00;;;;;-143.90;42.29;73095.03;4906116;28;102175;-74
2023/08/16 09:45:00;;;;;;;;;6.75;6.00;;;;;-143.90;41.70;73105.34;4921721;28;104004;-74
2023/08/16 09:47:30;;;;;;;;;6.00;4.75;;;;;-143.90;40.83;73084.69;4907367;28;102203;-74
2023/08/16 09:50:00;;;;;;;;;3.50;3.50;;;;;-143.90;40.54;73072.28;4902246;28;102195;-75
2023/08/16 09:52:28;;;;;;;;;6.00;6.00;;;;;-143.90;41.57;73039.22;4909822;28;102457;-73
2023/08/16 09:54:57;;;;;;;;;9.00;9.00;;;;;-143.90;42.88;73055.75;4904655;28;104076;-73
2023/08/16 09:57:24;;;;;;;;;8.67;8.33;;;;;-143.90;43.00;73043.38;4907139;28;102375;-74
2023/08/16 09:59:55;;;;;;;;;9.00;9.00;;;;;-143.90;40.75;73043.38;4896170;28;105655;-74
2023/08/16 10:02:22;;;;;;;;;9.00;8.00;;;;;-143.90;41.97;73018.56;4910797;28;101976;-73
2023/08/16 10:05:10;;;;;;;;;9.00;8.67;;;;;-143.90;43.02;73030.97;4902120;28;105621;-74
2023/08/16 10:07:56;;;;;;;;;11.67;11.00;;;;;-143.90;41.04;73016.50;4903652;28;102295;-74
2023/08/16 10:10:23;;;;;;;;;7.50;6.25;;;;;-143.90;40.79;73010.31;4920654;28;103065;-74
2023/08/16 10:12:51;;;;;;;;;8.00;7.50;;;;;-143.90;40.32;73014.44;4909738;28;102057;-74
2023/08/16 10:15:18;;;;;;;;;7.00;6.50;;;;;-143.90;41.32;72997.91;4907325;28;107941;-73
2023/08/16 10:17:50;;;;;;;;;5.75;5.25;;;;;-143.90;40.89;72997.91;4897449;28;102094;-74
2023/08/16 10:20:32;;;;;;;;;9.00;8.25;;;;;-143.90;43.24;72993.78;4896601;28;102495;-74
2023/08/16 10:23:01;;;;;;;;;5.75;5.25;;;;;-143.90;40.96;72975.19;4899484;28;104570;-74
2023/08/16 10:25:36;;;;;;;;;6.33;6.33;;;;;-143.90;39.98;72975.19;4915290;28;103500;-73
2023/08/16 10:28:04;;;;;;;;;10.33;10.33;;;;;-143.90;40.82;72997.91;4905617;28;101997;-73
2023/08/16 10:30:33;;;;;;;;;18.67;15.33;;;;;-143.90;39.35;72993.78;4900031;28;102025;-73
2023/08/16 10:33:06;;;;;;;;;16.00;15.00;;;;;-143.90;40.68;72993.78;4897307;28;102501;-73
2023/08/16 10:35:35;;;;;;;;;16.00;13.00;;;;;-143.90;40.28;72989.66;4911811;28;103752;-73
2023/08/16 10:38:03;;;;;;;;;14.67;13.67;;;;;-143.90;39.23;72977.25;4905993;28;102420;-73
2023/08/16 10:40:30;;;;;;;;;10.00;10.00;;;;;-143.90;39.36;72968.97;4895521;28;102040;-74
2023/08/16 10:42:58;;;;;;;;;8.67;8.67;;;;;-143.90;39.18;72964.84;4909391;28;102606;-73
2023/08/16 10:45:28;;;;;;;;;10.33;10.00;;;;;-143.90;38.71;72968.97;4906957;28;103940;-73
2023/08/16 10:48:19;;;;;;;;;12.33;11.00;;;;;-143.90;39.59;72952.44;4906243;28;102381;-73
2023/08/16 10:50:58;;;;;;;;;16.00;16.00;;;;;-143.90;37.65;72985.50;4911407;28;102142;-73
2023/08/16 10:53:25;;;;;;;;;11.67;11.67;;;;;-143.90;38.76;72973.13;4909749;28;102176;-74
2023/08/16 10:55:55;;;;;;;;;9.50;9.00;;;;;-143.90;41.11;72971.03;4900036;28;103704;-74
2023/08/16 10:58:23;;;;;;;;;12.00;12.00;;;;;-143.90;37.52;72983.44;4911807;28;102310;-74
2023/08/16 11:00:58;;;;;;;;;12.33;11.33;;;;;-143.90;39.26;72985.50;4909909;28;102291;-74
2023/08/16 11:03:37;;;;;;;;;11.33;10.67;;;;;-143.90;38.28;73002.03;4913124;28;102089;-74
2023/08/16 11:06:08;;;;;;;;;10.00;8.33;;;;;-143.90;39.33;72989.66;4923661;28;104141;-74
2023/08/16 11:08:40;;;;;;;;;3.00;3.00;;;;;-143.90;40.94;72991.72;4912383;28;102252;-74
2023/08/16 11:11:08;;;;;;;;;6.50;6.25;;;;;-143.90;39.90;72987.56;4897766;28;102650;-74
2023/08/16 11:13:35;;;;;;;;;8.25;7.00;;;;;-143.90;41.63;72989.66;4911454;28;102402;-74
2023/08/16 11:16:02;;;;;;;;;5.50;5.50;;;;;-143.90;41.06;72981.38;4926114;28;103302;-74
2023/08/16 11:18:32;;;;;;;;;6.50;5.75;;;;;-143.90;41.19;72977.25;4911555;28;102422;-74